createdAt,value
2018-07-04T00:02:11.251Z,14.77
2018-07-04T00:04:52.459Z,11.50
2018-07-04T00:07:32.947Z,10.93
2018-07-04T00:10:13.715Z,8.70
2018-07-04T00:12:54.084Z,13.13
2018-07-04T00:15:34.384Z,9.27
2018-07-04T00:18:14.800Z,13.83
2018-07-04T00:20:55.222Z,14.10
2018-07-04T00:23:35.509Z,9.83
2018-07-04T00:26:15.910Z,11.90
2018-07-04T00:28:56.439Z,13.77
2018-07-04T00:31:36.742Z,8.37
2018-07-04T00:34:17.251Z,10.47
2018-07-04T00:36:58.096Z,11.23
2018-07-04T00:39:38.404Z,7.33
2018-07-04T00:42:18.855Z,8.60
2018-07-04T00:44:59.153Z,9.97
2018-07-04T00:47:39.549Z,11.37
2018-07-04T00:50:19.848Z,9.40
2018-07-04T00:53:00.686Z,13.80
2018-07-04T00:55:41.015Z,6.67
2018-07-04T00:58:21.456Z,9.17
2018-07-04T01:01:01.858Z,9.00
2018-07-04T01:03:42.115Z,10.80
2018-07-04T01:06:22.659Z,13.53
2018-07-04T01:09:03.180Z,11.80
2018-07-04T01:11:43.517Z,11.73
2018-07-04T01:14:23.843Z,11.73
2018-07-04T01:17:04.275Z,11.87
2018-07-04T01:19:44.762Z,11.13
2018-07-04T01:22:25.143Z,15.57
2018-07-04T01:25:05.673Z,12.53
2018-07-04T01:27:46.295Z,12.30
2018-07-04T01:30:26.724Z,10.13
2018-07-04T01:33:07.440Z,11.03
2018-07-04T01:35:47.900Z,12.20
2018-07-04T01:38:28.363Z,12.60
2018-07-04T01:41:08.624Z,10.77
2018-07-04T01:43:48.891Z,10.17
2018-07-04T01:46:29.207Z,8.97
2018-07-04T01:49:09.592Z,10.83
2018-07-04T01:51:50.030Z,8.17
2018-07-04T01:54:31.168Z,14.33
2018-07-04T01:57:11.589Z,12.87
2018-07-04T01:59:51.959Z,10.67
2018-07-04T02:02:32.591Z,11.57
2018-07-04T02:05:12.918Z,14.43
2018-07-04T02:07:53.260Z,15.07
2018-07-04T02:10:33.767Z,11.17
2018-07-04T02:13:14.670Z,13.40
2018-07-04T02:15:55.149Z,10.53
2018-07-04T02:18:35.611Z,9.90
2018-07-04T02:21:15.837Z,13.27
2018-07-04T02:23:56.152Z,13.00
2018-07-04T02:26:36.604Z,12.17
2018-07-04T02:29:17.000Z,11.43
2018-07-04T02:31:57.371Z,10.73
2018-07-04T02:34:37.776Z,12.97
2018-07-04T02:37:18.327Z,12.43
2018-07-04T02:39:58.918Z,11.80
2018-07-04T02:42:39.499Z,12.73
2018-07-04T02:45:19.831Z,13.27
2018-07-04T02:48:00.292Z,12.00
2018-07-04T02:50:40.642Z,12.43
2018-07-04T02:53:20.971Z,11.77
2018-07-04T02:56:01.421Z,12.50
2018-07-04T02:58:41.824Z,10.13
2018-07-04T03:01:22.239Z,11.03
2018-07-04T03:04:02.745Z,11.67
2018-07-04T03:06:43.151Z,11.07
2018-07-04T03:09:23.575Z,13.87
2018-07-04T03:12:03.954Z,12.70
2018-07-04T03:14:44.282Z,12.13
2018-07-04T03:17:24.688Z,14.37
2018-07-04T03:20:05.077Z,13.07
2018-07-04T03:22:45.623Z,10.83
2018-07-04T03:25:26.008Z,11.47
2018-07-04T03:28:06.465Z,10.00
2018-07-04T03:30:46.788Z,12.83
2018-07-04T03:33:27.111Z,10.83
2018-07-04T03:36:07.572Z,12.13
2018-07-04T03:38:47.944Z,11.47
2018-07-04T03:41:28.324Z,11.00
2018-07-04T03:44:08.861Z,12.77
2018-07-04T03:46:49.427Z,10.43
2018-07-04T03:49:29.790Z,10.37
2018-07-04T03:52:10.123Z,12.80
2018-07-04T03:54:44.471Z,11.93
2018-07-04T03:57:24.799Z,14.67
2018-07-04T03:59:59.285Z,13.00
2018-07-04T04:02:39.770Z,11.97
2018-07-04T04:05:20.248Z,10.07
2018-07-04T04:08:00.620Z,11.00
2018-07-04T04:10:41.095Z,11.27
2018-07-04T04:13:21.550Z,10.57
2018-07-04T04:16:02.143Z,11.30
2018-07-04T04:18:42.475Z,9.70
2018-07-04T04:21:23.051Z,9.70
2018-07-04T04:24:03.324Z,10.30
2018-07-04T04:26:43.722Z,9.47
2018-07-04T04:29:24.184Z,7.50
2018-07-04T04:32:04.635Z,9.80
2018-07-04T04:34:44.913Z,8.73
2018-07-04T04:37:25.259Z,7.83
2018-07-04T04:40:05.632Z,7.07
2018-07-04T04:42:46.097Z,6.70
2018-07-04T04:45:26.452Z,6.47
2018-07-04T04:48:06.975Z,7.83
2018-07-04T04:50:47.330Z,10.30
2018-07-04T04:53:27.826Z,7.23
2018-07-04T04:56:08.340Z,6.73
2018-07-04T04:58:48.840Z,7.30
2018-07-04T05:01:29.131Z,6.57
2018-07-04T05:04:09.951Z,6.10
2018-07-04T05:06:50.232Z,7.60
2018-07-04T05:09:30.732Z,6.70
2018-07-04T05:12:11.032Z,7.27
2018-07-04T05:14:51.349Z,6.37
2018-07-04T05:17:31.745Z,8.97
2018-07-04T05:20:12.285Z,7.20
2018-07-04T05:22:52.664Z,5.07
2018-07-04T05:25:32.958Z,6.53
2018-07-04T05:28:13.599Z,4.97
2018-07-04T05:30:53.983Z,5.07
2018-07-04T05:33:34.343Z,6.40
2018-07-04T05:36:14.731Z,4.77
2018-07-04T05:38:55.107Z,5.50
2018-07-04T05:41:36.256Z,6.07
2018-07-04T05:44:16.744Z,5.70
2018-07-04T05:46:57.192Z,3.60
2018-07-04T05:49:37.538Z,5.80
2018-07-04T05:52:18.059Z,2.63
2018-07-04T05:54:58.350Z,4.10
2018-07-04T05:57:38.811Z,3.93
2018-07-04T06:00:19.267Z,3.63
2018-07-04T06:02:59.670Z,3.00
2018-07-04T06:05:40.123Z,4.30
2018-07-04T06:08:20.400Z,3.87
2018-07-04T06:11:00.932Z,3.70
2018-07-04T06:13:41.373Z,4.97
2018-07-04T06:16:22.087Z,3.67
2018-07-04T06:19:02.416Z,6.20
2018-07-04T06:21:42.763Z,4.90
2018-07-04T06:24:23.318Z,7.67
2018-07-04T06:27:03.987Z,4.23
2018-07-04T06:29:38.370Z,2.33
2018-07-04T06:32:19.147Z,3.73
2018-07-04T06:34:59.592Z,3.00
2018-07-04T06:37:41.252Z,4.90
2018-07-04T06:40:10.236Z,4.73
2018-07-04T06:42:38.667Z,2.60
2018-07-04T06:45:06.655Z,3.83
2018-07-04T06:47:34.631Z,3.83
2018-07-04T06:50:02.596Z,2.40
2018-07-04T06:52:30.548Z,3.90
2018-07-04T06:54:58.637Z,3.87
2018-07-04T06:57:26.596Z,5.87
2018-07-04T06:59:54.587Z,1.90
2018-07-04T07:02:22.562Z,2.50
2018-07-04T07:05:03.565Z,4.77
2018-07-04T07:07:43.968Z,2.13
2018-07-04T07:10:24.856Z,2.30
2018-07-04T07:13:05.273Z,3.50
2018-07-04T07:15:45.753Z,3.07
2018-07-04T07:18:26.136Z,2.87
2018-07-04T07:21:06.421Z,2.70
2018-07-04T07:23:46.935Z,4.60
2018-07-04T07:26:27.401Z,1.87
2018-07-04T07:29:07.800Z,4.33
2018-07-04T07:31:48.238Z,3.00
2018-07-04T07:34:31.493Z,1.30
2018-07-04T07:37:11.790Z,2.67
2018-07-04T07:39:52.487Z,2.77
2018-07-04T07:42:32.902Z,4.43
2018-07-04T07:45:13.219Z,3.27
2018-07-04T07:47:53.607Z,1.23
2018-07-04T07:50:34.105Z,2.17
2018-07-04T07:53:14.585Z,4.12
2018-07-04T07:55:54.917Z,1.98
2018-07-04T07:58:35.240Z,2.50
2018-07-04T08:01:15.555Z,1.47
2018-07-04T08:03:55.953Z,2.30
2018-07-04T08:06:36.827Z,3.70
2018-07-04T08:09:17.305Z,4.10
2018-07-04T08:11:57.670Z,1.87
2018-07-04T08:14:38.321Z,3.07
2018-07-04T08:17:18.919Z,1.67
2018-07-04T08:20:00.496Z,3.37
2018-07-04T08:22:41.050Z,3.67
2018-07-04T08:25:21.340Z,2.13
2018-07-04T08:28:01.897Z,2.50
2018-07-04T08:30:42.289Z,1.60
2018-07-04T08:33:22.847Z,2.80
2018-07-04T08:36:03.347Z,3.00
2018-07-04T08:38:43.815Z,1.82
2018-07-04T08:41:24.032Z,2.70
2018-07-04T08:44:04.716Z,1.27
2018-07-04T08:46:45.164Z,2.22
2018-07-04T08:49:25.608Z,4.95
2018-07-04T08:52:06.125Z,1.62
2018-07-04T08:54:46.608Z,2.70
2018-07-04T08:57:26.971Z,2.17
2018-07-04T09:00:07.336Z,2.12
2018-07-04T09:02:47.896Z,2.95
2018-07-04T09:05:28.288Z,2.17
2018-07-04T09:08:11.743Z,2.95
2018-07-04T09:10:46.045Z,3.05
2018-07-04T09:13:26.122Z,1.60
2018-07-04T09:16:06.376Z,1.72
2018-07-04T09:18:46.801Z,1.60
2018-07-04T09:21:27.184Z,1.85
2018-07-04T09:24:09.178Z,1.95
2018-07-04T09:26:49.540Z,1.95
2018-07-04T09:29:29.946Z,1.62
2018-07-04T09:32:10.346Z,2.02
2018-07-04T09:34:50.806Z,2.13
2018-07-04T09:37:31.101Z,2.37
2018-07-04T09:40:11.600Z,2.98
2018-07-04T09:42:51.996Z,1.22
2018-07-04T09:45:32.424Z,3.33
2018-07-04T09:48:12.955Z,2.80
2018-07-04T09:50:53.913Z,1.75
2018-07-04T09:53:37.534Z,1.98
2018-07-04T09:56:18.614Z,2.72
2018-07-04T09:58:59.163Z,2.10
2018-07-04T10:01:39.589Z,1.98
2018-07-04T10:04:19.975Z,3.47
2018-07-04T10:07:01.118Z,3.85
2018-07-04T10:09:41.636Z,2.52
2018-07-04T10:12:22.237Z,2.12
2018-07-04T10:15:02.756Z,1.82
2018-07-04T10:17:43.082Z,2.37
2018-07-04T10:20:23.694Z,1.35
2018-07-04T10:23:04.285Z,1.40
2018-07-04T10:25:44.672Z,2.20
2018-07-04T10:28:19.327Z,6.05
2018-07-04T10:30:59.480Z,3.03
2018-07-04T10:33:39.930Z,3.43
2018-07-04T10:36:20.368Z,3.05
2018-07-04T10:39:00.823Z,2.27
2018-07-04T10:41:41.274Z,2.02
2018-07-04T10:44:21.688Z,4.17
2018-07-04T10:47:02.106Z,4.58
2018-07-04T10:49:42.476Z,1.47
2018-07-04T10:52:22.967Z,4.10
2018-07-04T10:55:03.300Z,2.75
2018-07-04T10:57:43.797Z,2.80
2018-07-04T11:00:24.321Z,4.42
2018-07-04T11:03:04.779Z,3.30
2018-07-04T11:05:45.128Z,2.67
2018-07-04T11:08:25.827Z,2.77
2018-07-04T11:11:06.453Z,2.37
2018-07-04T11:13:46.894Z,1.67
2018-07-04T11:16:27.441Z,1.22
2018-07-04T11:19:07.821Z,2.35
2018-07-04T11:21:48.092Z,1.93
2018-07-04T11:24:28.662Z,2.53
2018-07-04T11:27:09.064Z,4.53
2018-07-04T11:29:49.460Z,1.60
2018-07-04T11:32:29.971Z,1.60
2018-07-04T11:35:10.328Z,0.90
2018-07-04T11:37:50.643Z,2.10
2018-07-04T11:40:31.024Z,3.95
2018-07-04T11:43:11.348Z,2.95
2018-07-04T11:45:51.747Z,1.00
2018-07-04T11:48:19.747Z,1.17
2018-07-04T11:50:47.728Z,0.90
2018-07-04T11:53:15.727Z,3.05
2018-07-04T11:55:43.795Z,3.08
2018-07-04T11:58:12.032Z,0.93
2018-07-04T12:00:39.999Z,4.75
2018-07-04T12:03:13.884Z,1.95
2018-07-04T12:05:54.413Z,2.62
2018-07-04T12:08:22.675Z,1.05
2018-07-04T12:10:51.120Z,1.22
2018-07-04T12:13:20.294Z,1.40
2018-07-04T12:15:49.383Z,1.72
2018-07-04T12:18:17.423Z,1.42
2018-07-04T12:20:45.747Z,2.02
2018-07-04T12:23:14.716Z,0.85
2018-07-04T12:25:43.717Z,1.07
2018-07-04T12:28:11.710Z,1.70
2018-07-04T12:30:39.830Z,1.65
2018-07-04T12:33:07.815Z,0.75
2018-07-04T12:35:36.119Z,1.17
2018-07-04T12:38:04.007Z,2.25
2018-07-04T12:40:32.015Z,1.52
2018-07-04T12:42:59.917Z,3.42
2018-07-04T12:45:27.929Z,1.00
2018-07-04T12:47:55.939Z,0.88
2018-07-04T12:50:28.091Z,1.55
2018-07-04T12:52:56.174Z,1.05
2018-07-04T12:55:36.012Z,1.47
2018-07-04T12:58:17.297Z,1.45
2018-07-04T13:00:57.851Z,1.33
2018-07-04T13:03:38.671Z,1.35
2018-07-04T13:06:19.056Z,0.95
2018-07-04T13:08:59.488Z,1.47
2018-07-04T13:11:40.001Z,1.30
2018-07-04T13:14:20.352Z,1.00
2018-07-04T13:17:00.752Z,0.70
2018-07-04T13:19:41.943Z,0.95
2018-07-04T13:22:22.429Z,0.50
2018-07-04T13:25:02.748Z,1.37
2018-07-04T13:27:37.067Z,1.60
2018-07-04T13:30:17.505Z,1.37
2018-07-04T13:32:58.133Z,2.27
2018-07-04T13:35:38.648Z,1.92
2018-07-04T13:38:19.109Z,0.72
2018-07-04T13:40:59.320Z,1.35
2018-07-04T13:43:39.587Z,1.10
2018-07-04T13:46:19.850Z,0.70
2018-07-04T13:49:00.199Z,0.80
2018-07-04T13:51:40.740Z,2.87
2018-07-04T13:54:21.353Z,2.63
2018-07-04T13:57:01.642Z,2.10
2018-07-04T13:59:42.052Z,1.00
2018-07-04T14:02:22.535Z,0.95
2018-07-04T14:05:03.549Z,1.00
2018-07-04T14:07:37.914Z,1.00
2018-07-04T14:10:18.489Z,2.13
2018-07-04T14:12:59.060Z,1.70
2018-07-04T14:15:39.419Z,1.20
2018-07-04T14:18:19.869Z,1.40
2018-07-04T14:20:54.215Z,1.47
2018-07-04T14:23:34.680Z,0.83
2018-07-04T14:26:15.888Z,1.50
2018-07-04T14:28:56.371Z,0.80
2018-07-04T14:31:36.874Z,1.30
2018-07-04T14:34:17.257Z,1.20
2018-07-04T14:36:57.599Z,1.40
2018-07-04T14:39:37.898Z,1.57
2018-07-04T14:42:12.247Z,1.80
2018-07-04T14:44:52.574Z,2.40
2018-07-04T14:47:33.037Z,1.10
2018-07-04T14:50:07.345Z,1.63
2018-07-04T14:52:41.720Z,1.13
2018-07-04T14:55:22.159Z,1.00
2018-07-04T14:58:02.713Z,3.00
2018-07-04T15:00:43.175Z,1.30
2018-07-04T15:03:23.859Z,1.53
2018-07-04T15:06:04.349Z,1.23
2018-07-04T15:08:44.720Z,1.43
2018-07-04T15:11:25.564Z,0.93
2018-07-04T15:14:05.941Z,0.80
2018-07-04T15:16:46.288Z,0.80
2018-07-04T15:19:26.683Z,1.07
2018-07-04T15:22:07.229Z,0.90
2018-07-04T15:24:47.800Z,2.73
2018-07-04T15:27:28.264Z,2.90
2018-07-04T15:30:08.630Z,2.00
2018-07-04T15:32:49.157Z,0.70
2018-07-04T15:35:29.811Z,1.13
2018-07-04T15:38:11.148Z,1.00
2018-07-04T15:40:51.554Z,0.63
2018-07-04T15:43:31.920Z,2.10
2018-07-04T15:46:12.348Z,1.10
2018-07-04T15:48:52.840Z,2.30
2018-07-04T15:51:27.205Z,1.83
2018-07-04T15:54:01.608Z,1.23
2018-07-04T15:56:42.271Z,2.00
2018-07-04T15:59:23.582Z,1.57
2018-07-04T16:02:04.236Z,1.43
2018-07-04T16:04:44.899Z,3.60
2018-07-04T16:07:25.354Z,1.47
2018-07-04T16:10:05.789Z,2.00
2018-07-04T16:12:46.463Z,1.70
2018-07-04T16:15:27.125Z,1.30
2018-07-04T16:18:07.571Z,1.50
2018-07-04T16:20:48.052Z,1.40
2018-07-04T16:23:29.409Z,1.20
2018-07-04T16:26:10.033Z,1.33
2018-07-04T16:28:50.384Z,1.00
2018-07-04T16:31:30.898Z,1.70
2018-07-04T16:34:11.456Z,1.10
2018-07-04T16:36:51.839Z,0.93
2018-07-04T16:39:26.235Z,2.07
2018-07-04T16:42:06.528Z,1.60
2018-07-04T16:44:46.946Z,1.30
2018-07-04T16:47:27.382Z,1.63
2018-07-04T16:50:07.792Z,1.23
2018-07-04T16:52:48.110Z,1.50
2018-07-04T16:55:28.617Z,1.40
2018-07-04T16:58:08.864Z,1.50
2018-07-04T17:00:49.191Z,1.43
2018-07-04T17:03:29.577Z,1.60
2018-07-04T17:06:10.989Z,1.87
2018-07-04T17:08:51.418Z,1.97
2018-07-04T17:11:31.766Z,1.60
2018-07-04T17:14:12.031Z,2.40
2018-07-04T17:16:52.395Z,1.63
2018-07-04T17:19:32.859Z,1.40
2018-07-04T17:22:13.319Z,1.63
2018-07-04T17:24:53.783Z,2.77
2018-07-04T17:27:34.108Z,1.60
2018-07-04T17:30:14.515Z,1.80
2018-07-04T17:32:54.840Z,2.37
2018-07-04T17:35:35.537Z,2.17
2018-07-04T17:38:16.093Z,1.60
2018-07-04T17:40:56.460Z,1.80
2018-07-04T17:43:36.825Z,1.70
2018-07-04T17:46:17.332Z,2.13
2018-07-04T17:48:59.371Z,2.63
2018-07-04T17:51:39.775Z,2.57
2018-07-04T17:54:20.166Z,1.70
2018-07-04T17:57:00.676Z,2.00
2018-07-04T17:59:41.099Z,2.73
2018-07-04T18:02:21.567Z,2.53
2018-07-04T18:05:02.915Z,2.10
2018-07-04T18:07:43.380Z,1.73
2018-07-04T18:10:23.979Z,2.13
2018-07-04T18:13:04.345Z,2.37
2018-07-04T18:15:44.804Z,2.10
2018-07-04T18:18:25.171Z,3.20
2018-07-04T18:21:11.033Z,2.00
2018-07-04T18:23:51.456Z,2.70
2018-07-04T18:26:32.259Z,2.50
2018-07-04T18:29:12.774Z,3.03
2018-07-04T18:31:53.189Z,9.63
2018-07-04T18:34:33.469Z,2.10
2018-07-04T18:37:13.945Z,2.30
2018-07-04T18:39:54.386Z,2.43
2018-07-04T18:42:34.947Z,2.83
2018-07-04T18:45:15.312Z,2.43
2018-07-04T18:47:56.180Z,2.20
2018-07-04T18:50:36.911Z,2.40
2018-07-04T18:53:17.367Z,2.23
2018-07-04T18:55:57.739Z,2.20
2018-07-04T18:58:38.043Z,2.70
2018-07-04T19:01:18.322Z,2.50
2018-07-04T19:03:58.697Z,2.50
2018-07-04T19:06:39.166Z,2.57
2018-07-04T19:09:19.632Z,2.50
2018-07-04T19:12:00.181Z,3.43
2018-07-04T19:14:40.642Z,2.73
2018-07-04T19:17:21.048Z,2.53
2018-07-04T19:20:01.453Z,2.97
2018-07-04T19:22:41.834Z,3.70
2018-07-04T19:25:22.530Z,3.03
2018-07-04T19:28:03.266Z,4.53
2018-07-04T19:30:43.631Z,2.80
2018-07-04T19:33:24.436Z,2.77
2018-07-04T19:36:04.754Z,3.33
2018-07-04T19:38:45.764Z,3.60
2018-07-04T19:41:20.412Z,2.80
2018-07-04T19:44:00.762Z,2.60
2018-07-04T19:46:41.563Z,2.87
2018-07-04T19:49:22.021Z,3.90
2018-07-04T19:52:02.397Z,2.77
2018-07-04T19:54:43.466Z,2.50
2018-07-04T19:57:24.233Z,2.43
2018-07-04T20:00:04.742Z,2.60
2018-07-04T20:02:45.184Z,4.13
2018-07-04T20:05:25.564Z,3.07
2018-07-04T20:08:05.919Z,3.13
2018-07-04T20:10:46.361Z,2.70
2018-07-04T20:13:26.817Z,2.50
2018-07-04T20:16:07.384Z,2.70
2018-07-04T20:18:47.737Z,3.47
2018-07-04T20:21:28.157Z,3.83
2018-07-04T20:24:08.455Z,2.90
2018-07-04T20:26:48.956Z,2.90
2018-07-04T20:29:29.981Z,3.67
2018-07-04T20:32:10.453Z,3.17
2018-07-04T20:34:45.647Z,3.70
2018-07-04T20:37:26.571Z,3.20
2018-07-04T20:40:06.952Z,4.23
2018-07-04T20:42:47.330Z,3.10
2018-07-04T20:45:27.730Z,3.70
2018-07-04T20:48:08.051Z,4.07
2018-07-04T20:50:48.410Z,5.30
2018-07-04T20:53:28.835Z,3.80
2018-07-04T20:56:09.240Z,3.47
2018-07-04T20:58:49.714Z,4.10
2018-07-04T21:01:30.103Z,4.93
2018-07-04T21:04:10.467Z,5.40
2018-07-04T21:06:50.947Z,4.27
2018-07-04T21:09:31.159Z,4.17
2018-07-04T21:12:11.652Z,4.23
2018-07-04T21:14:51.927Z,3.77
2018-07-04T21:17:32.513Z,6.03
2018-07-04T21:20:12.841Z,5.57
2018-07-04T21:22:53.341Z,6.23
2018-07-04T21:25:33.665Z,4.73
2018-07-04T21:28:14.222Z,5.53
2018-07-04T21:30:54.932Z,6.67
2018-07-04T21:33:35.220Z,3.80
2018-07-04T21:36:15.987Z,4.23
2018-07-04T21:38:56.280Z,3.67
2018-07-04T21:41:36.568Z,5.10
2018-07-04T21:44:16.960Z,3.70
2018-07-04T21:46:57.371Z,4.57
2018-07-04T21:49:37.920Z,5.73
2018-07-04T21:52:18.211Z,4.63
2018-07-04T21:54:58.716Z,4.90
2018-07-04T21:57:39.146Z,4.67
2018-07-04T22:00:24.180Z,6.00
2018-07-04T22:03:04.580Z,6.67
2018-07-04T22:05:45.023Z,4.97
2018-07-04T22:08:25.543Z,3.77
2018-07-04T22:11:05.893Z,4.17
2018-07-04T22:13:40.573Z,3.77
2018-07-04T22:16:21.309Z,3.97
2018-07-04T22:19:01.802Z,5.13
2018-07-04T22:21:42.045Z,4.93
2018-07-04T22:24:22.564Z,7.27
2018-07-04T22:27:02.985Z,3.27
2018-07-04T22:29:43.260Z,5.10
2018-07-04T22:32:23.788Z,5.93
2018-07-04T22:35:04.403Z,11.03
2018-07-04T22:37:44.668Z,3.83
2018-07-04T22:40:25.079Z,5.47
2018-07-04T22:43:05.590Z,4.53
2018-07-04T22:45:45.996Z,6.17
2018-07-04T22:48:27.056Z,5.53
2018-07-04T22:51:07.434Z,6.33
2018-07-04T22:53:47.988Z,5.80
2018-07-04T22:56:28.356Z,5.87
2018-07-04T22:59:08.701Z,7.63
2018-07-04T23:01:49.239Z,8.00
2018-07-04T23:04:29.605Z,7.13
2018-07-04T23:07:09.988Z,6.17
2018-07-04T23:09:50.540Z,7.27
2018-07-04T23:12:30.915Z,7.47
2018-07-04T23:15:11.230Z,7.90
2018-07-04T23:17:51.507Z,7.07
2018-07-04T23:20:31.925Z,5.87
2018-07-04T23:23:12.312Z,6.60
2018-07-04T23:25:52.610Z,5.40
2018-07-04T23:28:33.081Z,5.53
2018-07-04T23:31:13.484Z,5.33
2018-07-04T23:33:53.935Z,7.57
2018-07-04T23:36:34.267Z,7.73
2018-07-04T23:39:14.750Z,6.40
2018-07-04T23:41:55.265Z,6.07
2018-07-04T23:44:35.715Z,6.53
2018-07-04T23:47:16.016Z,7.93
2018-07-04T23:49:56.420Z,7.80
2018-07-04T23:52:36.682Z,9.03
2018-07-04T23:55:16.972Z,7.57
2018-07-04T23:57:58.034Z,9.63
